sensor_id;sensor_type;location;lat;lon;timestamp;pressure;altitude;pressure_sealevel;temperature;humidity
74659;BME280;63186;51.204;6.536;2022-10-19T00:00:42;102426.41;;;6.44;97.54
74659;BME280;63186;51.204;6.536;2022-10-19T00:03:07;102426.91;;;6.41;97.78
74659;BME280;63186;51.204;6.536;2022-10-19T00:05:33;102427.75;;;6.30;97.12
74659;BME280;63186;51.204;6.536;2022-10-19T00:07:58;102431.56;;;6.29;97.52
74659;BME280;63186;51.204;6.536;2022-10-19T00:10:25;102431.06;;;6.32;97.69
74659;BME280;63186;51.204;6.536;2022-10-19T00:12:51;102435.56;;;6.38;98.06
74659;BME280;63186;51.204;6.536;2022-10-19T00:15:16;102419.16;;;6.38;97.82
74659;BME280;63186;51.204;6.536;2022-10-19T00:17:41;102426.53;;;6.37;97.64
74659;BME280;63186;51.204;6.536;2022-10-19T00:20:08;102410.94;;;6.38;97.60
74659;BME280;63186;51.204;6.536;2022-10-19T00:22:33;102410.38;;;6.36;97.53
74659;BME280;63186;51.204;6.536;2022-10-19T00:24:58;102410.50;;;6.29;97.58
74659;BME280;63186;51.204;6.536;2022-10-19T00:27:23;102413.13;;;6.24;97.31
74659;BME280;63186;51.204;6.536;2022-10-19T00:29:49;102410.91;;;6.09;96.86
74659;BME280;63186;51.204;6.536;2022-10-19T00:32:14;102411.97;;;5.85;96.66
74659;BME280;63186;51.204;6.536;2022-10-19T00:34:39;102415.66;;;5.79;97.37
74659;BME280;63186;51.204;6.536;2022-10-19T00:37:04;102399.03;;;5.68;96.78
74659;BME280;63186;51.204;6.536;2022-10-19T00:39:30;102409.38;;;5.66;97.34
74659;BME280;63186;51.204;6.536;2022-10-19T00:41:55;102416.72;;;5.78;97.79
74659;BME280;63186;51.204;6.536;2022-10-19T00:47:00;102408.16;;;5.86;97.76
74659;BME280;63186;51.204;6.536;2022-10-19T00:49:29;102411.97;;;5.85;97.75
74659;BME280;63186;51.204;6.536;2022-10-19T00:51:59;102416.84;;;5.83;97.57
74659;BME280;63186;51.204;6.536;2022-10-19T00:54:25;102413.28;;;5.82;97.85
74659;BME280;63186;51.204;6.536;2022-10-19T00:56:52;102418.38;;;5.90;98.07
74659;BME280;63186;51.204;6.536;2022-10-19T00:59:20;102416.16;;;5.87;97.94
74659;BME280;63186;51.204;6.536;2022-10-19T01:01:46;102422.44;;;5.88;98.07
74659;BME280;63186;51.204;6.536;2022-10-19T01:04:13;102414.13;;;5.83;97.96
74659;BME280;63186;51.204;6.536;2022-10-19T01:06:39;102404.38;;;5.75;97.77
74659;BME280;63186;51.204;6.536;2022-10-19T01:09:05;102406.75;;;5.71;98.20
74659;BME280;63186;51.204;6.536;2022-10-19T01:17:15;102406.75;;;5.71;98.25
74659;BME280;63186;51.204;6.536;2022-10-19T01:25:22;102404.84;;;5.60;98.27
74659;BME280;63186;51.204;6.536;2022-10-19T01:27:52;102402.00;;;5.55;98.02
74659;BME280;63186;51.204;6.536;2022-10-19T01:30:36;102397.00;;;5.40;97.77
74659;BME280;63186;51.204;6.536;2022-10-19T01:33:43;102389.41;;;5.31;98.05
74659;BME280;63186;51.204;6.536;2022-10-19T01:41:57;102390.22;;;5.31;98.23
74659;BME280;63186;51.204;6.536;2022-10-19T01:44:52;102383.94;;;5.31;98.50
74659;BME280;63186;51.204;6.536;2022-10-19T01:47:19;102373.38;;;5.34;98.47
74659;BME280;63186;51.204;6.536;2022-10-19T01:50:05;102374.81;;;5.37;98.54
74659;BME280;63186;51.204;6.536;2022-10-19T01:52:33;102366.63;;;5.37;98.60
74659;BME280;63186;51.204;6.536;2022-10-19T01:55:00;102370.31;;;5.42;98.43
74659;BME280;63186;51.204;6.536;2022-10-19T01:57:31;102366.75;;;5.42;98.43
74659;BME280;63186;51.204;6.536;2022-10-19T01:59:57;102375.38;;;5.39;98.25
74659;BME280;63186;51.204;6.536;2022-10-19T02:02:25;102383.25;;;5.35;98.31
74659;BME280;63186;51.204;6.536;2022-10-19T02:04:51;102379.78;;;5.28;98.41
74659;BME280;63186;51.204;6.536;2022-10-19T02:07:19;102372.75;;;5.21;98.30
74659;BME280;63186;51.204;6.536;2022-10-19T02:09:45;102383.91;;;5.19;98.58
74659;BME280;63186;51.204;6.536;2022-10-19T02:12:11;102380.84;;;5.15;98.54
74659;BME280;63186;51.204;6.536;2022-10-19T02:14:46;102376.44;;;5.14;98.65
74659;BME280;63186;51.204;6.536;2022-10-19T02:17:16;102373.50;;;5.16;98.82
74659;BME280;63186;51.204;6.536;2022-10-19T02:19:43;102376.63;;;5.01;98.07
74659;BME280;63186;51.204;6.536;2022-10-19T02:22:09;102364.53;;;4.85;98.02
74659;BME280;63186;51.204;6.536;2022-10-19T02:24:34;102365.44;;;4.79;98.35
74659;BME280;63186;51.204;6.536;2022-10-19T02:27:00;102358.00;;;4.86;98.75
74659;BME280;63186;51.204;6.536;2022-10-19T02:29:28;102358.38;;;4.90;98.42
74659;BME280;63186;51.204;6.536;2022-10-19T02:31:54;102352.53;;;4.86;98.06
74659;BME280;63186;51.204;6.536;2022-10-19T02:34:19;102352.78;;;4.85;98.37
74659;BME280;63186;51.204;6.536;2022-10-19T02:36:44;102356.44;;;4.79;97.78
74659;BME280;63186;51.204;6.536;2022-10-19T02:39:10;102350.97;;;4.79;98.26
74659;BME280;63186;51.204;6.536;2022-10-19T02:41:38;102352.19;;;4.83;98.43
74659;BME280;63186;51.204;6.536;2022-10-19T02:44:15;102341.28;;;4.83;98.26
74659;BME280;63186;51.204;6.536;2022-10-19T02:46:46;102343.75;;;4.84;98.24
74659;BME280;63186;51.204;6.536;2022-10-19T02:49:14;102338.06;;;4.86;98.26
74659;BME280;63186;51.204;6.536;2022-10-19T02:51:55;102338.31;;;4.84;98.36
74659;BME280;63186;51.204;6.536;2022-10-19T02:54:22;102334.75;;;4.84;98.25
74659;BME280;63186;51.204;6.536;2022-10-19T02:56:48;102334.59;;;4.79;98.33
74659;BME280;63186;51.204;6.536;2022-10-19T02:59:13;102331.28;;;4.77;98.24
74659;BME280;63186;51.204;6.536;2022-10-19T03:01:38;102326.88;;;4.76;97.94
74659;BME280;63186;51.204;6.536;2022-10-19T03:04:03;102319.91;;;4.80;98.31
74659;BME280;63186;51.204;6.536;2022-10-19T03:06:29;102318.94;;;4.74;98.08
74659;BME280;63186;51.204;6.536;2022-10-19T03:08:54;102318.19;;;4.67;98.01
74659;BME280;63186;51.204;6.536;2022-10-19T03:11:19;102326.63;;;4.66;97.91
74659;BME280;63186;51.204;6.536;2022-10-19T03:13:45;102319.75;;;4.63;98.07
74659;BME280;63186;51.204;6.536;2022-10-19T03:16:11;102321.72;;;4.56;97.44
74659;BME280;63186;51.204;6.536;2022-10-19T03:18:37;102322.44;;;4.51;97.96
74659;BME280;63186;51.204;6.536;2022-10-19T03:21:11;102331.94;;;4.60;98.41
74659;BME280;63186;51.204;6.536;2022-10-19T03:23:38;102334.91;;;4.59;98.27
74659;BME280;63186;51.204;6.536;2022-10-19T03:26:05;102320.31;;;4.53;98.41
74659;BME280;63186;51.204;6.536;2022-10-19T03:28:30;102323.84;;;4.54;98.58
74659;BME280;63186;51.204;6.536;2022-10-19T03:30:56;102324.59;;;4.61;98.65
74659;BME280;63186;51.204;6.536;2022-10-19T03:33:21;102327.19;;;4.56;98.28
74659;BME280;63186;51.204;6.536;2022-10-19T03:35:47;102335.44;;;4.49;98.01
74659;BME280;63186;51.204;6.536;2022-10-19T03:38:12;102339.25;;;4.48;98.78
74659;BME280;63186;51.204;6.536;2022-10-19T03:40:38;102339.72;;;4.45;98.75
74659;BME280;63186;51.204;6.536;2022-10-19T03:43:03;102342.47;;;4.45;98.74
74659;BME280;63186;51.204;6.536;2022-10-19T03:45:29;102351.06;;;4.42;98.84
74659;BME280;63186;51.204;6.536;2022-10-19T03:47:54;102350.50;;;4.40;98.38
74659;BME280;63186;51.204;6.536;2022-10-19T03:50:19;102347.34;;;4.25;98.07
74659;BME280;63186;51.204;6.536;2022-10-19T03:52:45;102344.03;;;4.04;98.04
74659;BME280;63186;51.204;6.536;2022-10-19T03:55:10;102345.09;;;4.03;98.59
74659;BME280;63186;51.204;6.536;2022-10-19T03:57:36;102339.88;;;4.02;98.36
74659;BME280;63186;51.204;6.536;2022-10-19T04:00:05;102340.78;;;3.96;98.30
74659;BME280;63186;51.204;6.536;2022-10-19T04:02:31;102342.31;;;3.92;98.42
74659;BME280;63186;51.204;6.536;2022-10-19T04:04:56;102341.59;;;3.96;98.64
74659;BME280;63186;51.204;6.536;2022-10-19T04:07:21;102334.72;;;3.94;98.83
74659;BME280;63186;51.204;6.536;2022-10-19T04:09:47;102341.84;;;3.95;98.45
74659;BME280;63186;51.204;6.536;2022-10-19T04:12:12;102341.00;;;3.94;98.67
74659;BME280;63186;51.204;6.536;2022-10-19T04:14:37;102346.69;;;3.93;99.00
74659;BME280;63186;51.204;6.536;2022-10-19T04:17:03;102335.81;;;3.93;98.85
74659;BME280;63186;51.204;6.536;2022-10-19T04:19:29;102339.03;;;4.01;99.06
74659;BME280;63186;51.204;6.536;2022-10-19T04:21:54;102344.03;;;4.04;98.84
74659;BME280;63186;51.204;6.536;2022-10-19T04:24:19;102345.91;;;4.04;98.84
74659;BME280;63186;51.204;6.536;2022-10-19T04:26:47;102343.97;;;4.11;99.10
74659;BME280;63186;51.204;6.536;2022-10-19T04:29:14;102341.09;;;4.06;98.78
74659;BME280;63186;51.204;6.536;2022-10-19T04:31:39;102332.44;;;4.09;98.84
74659;BME280;63186;51.204;6.536;2022-10-19T04:34:05;102335.16;;;4.09;98.82
74659;BME280;63186;51.204;6.536;2022-10-19T04:36:32;102328.66;;;4.10;99.33
74659;BME280;63186;51.204;6.536;2022-10-19T04:38:57;102344.53;;;4.31;99.64
74659;BME280;63186;51.204;6.536;2022-10-19T04:41:22;102327.91;;;4.51;100.00
74659;BME280;63186;51.204;6.536;2022-10-19T04:43:53;102330.13;;;4.84;100.00
74659;BME280;63186;51.204;6.536;2022-10-19T04:46:19;102323.50;;;5.04;100.00
74659;BME280;63186;51.204;6.536;2022-10-19T04:48:45;102325.88;;;5.24;100.00
74659;BME280;63186;51.204;6.536;2022-10-19T04:51:11;102321.97;;;5.31;100.00
74659;BME280;63186;51.204;6.536;2022-10-19T04:53:39;102323.03;;;5.18;100.00
74659;BME280;63186;51.204;6.536;2022-10-19T04:56:11;102325.03;;;5.00;99.47
74659;BME280;63186;51.204;6.536;2022-10-19T04:58:37;102327.88;;;4.93;99.55
74659;BME280;63186;51.204;6.536;2022-10-19T05:01:18;102328.09;;;4.92;99.59
74659;BME280;63186;51.204;6.536;2022-10-19T05:03:44;102331.66;;;4.92;99.72
74659;BME280;63186;51.204;6.536;2022-10-19T05:06:11;102339.38;;;4.83;99.50
74659;BME280;63186;51.204;6.536;2022-10-19T05:08:36;102323.09;;;4.77;99.45
74659;BME280;63186;51.204;6.536;2022-10-19T05:11:04;102331.06;;;4.78;99.57
74659;BME280;63186;51.204;6.536;2022-10-19T05:13:31;102337.34;;;4.79;99.81
74659;BME280;63186;51.204;6.536;2022-10-19T05:15:58;102331.84;;;4.67;99.45
74659;BME280;63186;51.204;6.536;2022-10-19T05:18:24;102332.19;;;4.59;99.09
74659;BME280;63186;51.204;6.536;2022-10-19T05:20:49;102327.50;;;4.48;99.29
74659;BME280;63186;51.204;6.536;2022-10-19T05:23:15;102331.53;;;4.45;99.41
74659;BME280;63186;51.204;6.536;2022-10-19T05:25:40;102327.84;;;4.40;99.21
74659;BME280;63186;51.204;6.536;2022-10-19T05:28:05;102329.34;;;4.35;99.13
74659;BME280;63186;51.204;6.536;2022-10-19T05:30:30;102319.75;;;4.33;99.21
74659;BME280;63186;51.204;6.536;2022-10-19T05:32:56;102323.78;;;4.30;99.05
74659;BME280;63186;51.204;6.536;2022-10-19T05:35:22;102312.84;;;4.19;99.06
74659;BME280;63186;51.204;6.536;2022-10-19T05:37:47;102317.16;;;4.08;98.85
74659;BME280;63186;51.204;6.536;2022-10-19T05:40:12;102305.50;;;4.01;98.55
74659;BME280;63186;51.204;6.536;2022-10-19T05:42:37;102310.44;;;3.92;98.76
74659;BME280;63186;51.204;6.536;2022-10-19T05:45:03;102307.56;;;3.87;98.77
74659;BME280;63186;51.204;6.536;2022-10-19T05:47:28;102311.34;;;3.86;99.12
74659;BME280;63186;51.204;6.536;2022-10-19T05:49:54;102307.66;;;3.99;99.50
74659;BME280;63186;51.204;6.536;2022-10-19T05:52:19;102312.78;;;4.07;99.62
74659;BME280;63186;51.204;6.536;2022-10-19T05:54:44;102313.59;;;4.07;99.63
74659;BME280;63186;51.204;6.536;2022-10-19T05:57:09;102291.28;;;3.99;99.12
74659;BME280;63186;51.204;6.536;2022-10-19T05:59:35;102301.56;;;3.97;98.91
74659;BME280;63186;51.204;6.536;2022-10-19T06:02:00;102294.63;;;3.83;98.88
74659;BME280;63186;51.204;6.536;2022-10-19T06:04:25;102296.19;;;3.90;99.55
74659;BME280;63186;51.204;6.536;2022-10-19T06:06:50;102297.56;;;3.99;99.57
74659;BME280;63186;51.204;6.536;2022-10-19T06:09:16;102285.75;;;4.05;99.77
74659;BME280;63186;51.204;6.536;2022-10-19T06:11:42;102311.81;;;4.31;100.00
74659;BME280;63186;51.204;6.536;2022-10-19T06:14:11;102300.34;;;4.41;100.00
74659;BME280;63186;51.204;6.536;2022-10-19T06:16:37;102298.28;;;4.36;99.85
74659;BME280;63186;51.204;6.536;2022-10-19T06:19:03;102304.31;;;4.57;100.00
74659;BME280;63186;51.204;6.536;2022-10-19T06:21:30;102318.69;;;4.64;100.00
74659;BME280;63186;51.204;6.536;2022-10-19T06:23:59;102309.22;;;4.78;100.00
74659;BME280;63186;51.204;6.536;2022-10-19T06:26:25;102317.84;;;4.75;100.00
74659;BME280;63186;51.204;6.536;2022-10-19T06:28:53;102314.41;;;4.68;99.40
74659;BME280;63186;51.204;6.536;2022-10-19T06:31:19;102314.16;;;4.58;99.07
74659;BME280;63186;51.204;6.536;2022-10-19T06:33:44;102314.81;;;4.42;99.08
74659;BME280;63186;51.204;6.536;2022-10-19T06:36:18;102309.81;;;4.39;99.22
74659;BME280;63186;51.204;6.536;2022-10-19T06:38:44;102310.31;;;4.47;99.63
74659;BME280;63186;51.204;6.536;2022-10-19T06:41:10;102317.75;;;4.70;99.97
74659;BME280;63186;51.204;6.536;2022-10-19T06:43:36;102308.31;;;4.96;99.72
74659;BME280;63186;51.204;6.536;2022-10-19T06:46:06;102311.53;;;5.16;99.85
74659;BME280;63186;51.204;6.536;2022-10-19T06:48:31;102312.25;;;5.24;99.35
74659;BME280;63186;51.204;6.536;2022-10-19T06:50:57;102307.56;;;5.71;99.52
74659;BME280;63186;51.204;6.536;2022-10-19T06:53:24;102307.81;;;6.21;99.24
74659;BME280;63186;51.204;6.536;2022-10-19T06:55:49;102299.53;;;6.95;98.86
74659;BME280;63186;51.204;6.536;2022-10-19T06:58:14;102303.44;;;8.21;95.82
74659;BME280;63186;51.204;6.536;2022-10-19T07:00:40;102310.25;;;8.99;91.57
74659;BME280;63186;51.204;6.536;2022-10-19T07:03:05;102309.91;;;9.70;88.48
74659;BME280;63186;51.204;6.536;2022-10-19T07:05:30;102314.31;;;10.28;85.74
74659;BME280;63186;51.204;6.536;2022-10-19T07:07:56;102325.66;;;11.49;82.95
74659;BME280;63186;51.204;6.536;2022-10-19T07:10:22;102330.97;;;12.65;78.90
74659;BME280;63186;51.204;6.536;2022-10-19T07:12:47;102335.44;;;12.95;77.10
74659;BME280;63186;51.204;6.536;2022-10-19T07:15:13;102344.38;;;13.21;76.25
74659;BME280;63186;51.204;6.536;2022-10-19T07:17:38;102333.94;;;13.71;74.91
74659;BME280;63186;51.204;6.536;2022-10-19T07:20:03;102327.19;;;14.01;73.17
74659;BME280;63186;51.204;6.536;2022-10-19T07:22:29;102341.53;;;14.27;72.59
74659;BME280;63186;51.204;6.536;2022-10-19T07:24:54;102345.06;;;14.75;71.11
74659;BME280;63186;51.204;6.536;2022-10-19T07:27:19;102344.78;;;15.56;69.01
74659;BME280;63186;51.204;6.536;2022-10-19T07:29:45;102351.41;;;16.28;66.62
74659;BME280;63186;51.204;6.536;2022-10-19T07:32:10;102336.28;;;16.21;66.11
74659;BME280;63186;51.204;6.536;2022-10-19T07:34:35;102336.31;;;15.93;66.54
74659;BME280;63186;51.204;6.536;2022-10-19T07:37:00;102332.94;;;15.50;67.78
74659;BME280;63186;51.204;6.536;2022-10-19T07:39:26;102326.31;;;15.18;68.09
74659;BME280;63186;51.204;6.536;2022-10-19T07:41:51;102332.66;;;14.86;69.47
74659;BME280;63186;51.204;6.536;2022-10-19T07:44:17;102335.13;;;15.07;68.82
74659;BME280;63186;51.204;6.536;2022-10-19T07:46:42;102333.97;;;14.75;69.83
74659;BME280;63186;51.204;6.536;2022-10-19T07:49:12;102339.22;;;15.42;67.98
74659;BME280;63186;51.204;6.536;2022-10-19T07:51:38;102331.69;;;15.75;66.21
74659;BME280;63186;51.204;6.536;2022-10-19T07:54:04;102334.09;;;14.46;69.43
74659;BME280;63186;51.204;6.536;2022-10-19T07:56:30;102335.44;;;12.61;75.87
74659;BME280;63186;51.204;6.536;2022-10-19T07:58:57;102329.78;;;11.57;80.49
74659;BME280;63186;51.204;6.536;2022-10-19T08:01:27;102333.41;;;11.06;82.96
74659;BME280;63186;51.204;6.536;2022-10-19T08:03:55;102331.75;;;10.95;84.20
74659;BME280;63186;51.204;6.536;2022-10-19T08:06:21;102328.16;;;10.79;84.55
74659;BME280;63186;51.204;6.536;2022-10-19T08:08:47;102317.41;;;10.57;85.46
74659;BME280;63186;51.204;6.536;2022-10-19T08:13:46;102305.81;;;10.40;86.00
74659;BME280;63186;51.204;6.536;2022-10-19T08:16:26;102310.19;;;10.31;86.63
74659;BME280;63186;51.204;6.536;2022-10-19T08:18:55;102307.69;;;10.24;86.58
74659;BME280;63186;51.204;6.536;2022-10-19T08:21:21;102307.94;;;10.18;86.53
74659;BME280;63186;51.204;6.536;2022-10-19T08:23:46;102311.78;;;10.22;86.32
74659;BME280;63186;51.204;6.536;2022-10-19T08:26:12;102309.84;;;10.17;86.30
74659;BME280;63186;51.204;6.536;2022-10-19T08:28:37;102313.78;;;10.31;86.48
74659;BME280;63186;51.204;6.536;2022-10-19T08:31:14;102306.66;;;10.46;87.41
74659;BME280;63186;51.204;6.536;2022-10-19T08:33:40;102303.06;;;10.55;85.58
74659;BME280;63186;51.204;6.536;2022-10-19T08:36:06;102305.00;;;10.60;85.20
74659;BME280;63186;51.204;6.536;2022-10-19T08:38:34;102308.59;;;10.66;85.51
74659;BME280;63186;51.204;6.536;2022-10-19T08:41:07;102305.28;;;11.25;84.56
74659;BME280;63186;51.204;6.536;2022-10-19T08:43:43;102300.22;;;12.76;78.26
74659;BME280;63186;51.204;6.536;2022-10-19T08:46:25;102294.84;;;13.77;73.96
74659;BME280;63186;51.204;6.536;2022-10-19T08:48:54;102298.66;;;14.81;70.49
74659;BME280;63186;51.204;6.536;2022-10-19T08:51:20;102288.34;;;15.33;67.60
74659;BME280;63186;51.204;6.536;2022-10-19T08:53:52;102295.13;;;16.09;65.73
74659;BME280;63186;51.204;6.536;2022-10-19T08:59:12;102282.09;;;16.68;62.72
74659;BME280;63186;51.204;6.536;2022-10-19T09:01:50;102286.44;;;17.59;61.17
74659;BME280;63186;51.204;6.536;2022-10-19T09:04:30;102280.56;;;18.17;58.76
74659;BME280;63186;51.204;6.536;2022-10-19T09:07:18;102277.94;;;18.21;58.37
74659;BME280;63186;51.204;6.536;2022-10-19T09:09:53;102272.16;;;17.92;58.48
74659;BME280;63186;51.204;6.536;2022-10-19T09:12:30;102276.91;;;17.51;58.50
74659;BME280;63186;51.204;6.536;2022-10-19T09:15:02;102275.16;;;17.64;59.25
74659;BME280;63186;51.204;6.536;2022-10-19T09:17:29;102274.31;;;18.12;60.48
74659;BME280;63186;51.204;6.536;2022-10-19T09:19:55;102274.88;;;18.75;59.07
74659;BME280;63186;51.204;6.536;2022-10-19T09:22:31;102268.94;;;18.59;55.96
74659;BME280;63186;51.204;6.536;2022-10-19T09:25:12;102273.53;;;18.98;54.72
74659;BME280;63186;51.204;6.536;2022-10-19T09:27:39;102276.16;;;18.77;57.75
74659;BME280;63186;51.204;6.536;2022-10-19T09:30:14;102272.06;;;18.75;54.93
74659;BME280;63186;51.204;6.536;2022-10-19T09:32:41;102269.75;;;18.94;56.99
74659;BME280;63186;51.204;6.536;2022-10-19T09:35:31;102269.94;;;18.80;51.99
74659;BME280;63186;51.204;6.536;2022-10-19T09:37:57;102260.59;;;18.59;56.62
74659;BME280;63186;51.204;6.536;2022-10-19T09:40:26;102257.94;;;18.62;56.10
74659;BME280;63186;51.204;6.536;2022-10-19T09:42:52;102267.47;;;18.53;56.38
74659;BME280;63186;51.204;6.536;2022-10-19T09:45:40;102263.81;;;18.09;56.21
74659;BME280;63186;51.204;6.536;2022-10-19T09:48:17;102261.06;;;17.60;58.25
74659;BME280;63186;51.204;6.536;2022-10-19T09:50:44;102260.31;;;17.86;58.88
74659;BME280;63186;51.204;6.536;2022-10-19T09:53:19;102247.88;;;17.44;56.71
74659;BME280;63186;51.204;6.536;2022-10-19T09:55:56;102258.28;;;16.98;56.66
74659;BME280;63186;51.204;6.536;2022-10-19T09:58:24;102250.31;;;16.38;60.31
74659;BME280;63186;51.204;6.536;2022-10-19T10:00:51;102256.75;;;16.25;62.05
74659;BME280;63186;51.204;6.536;2022-10-19T10:05:51;102243.84;;;15.93;63.31
74659;BME280;63186;51.204;6.536;2022-10-19T10:08:20;102245.88;;;16.01;62.87
74659;BME280;63186;51.204;6.536;2022-10-19T10:11:14;102241.56;;;15.95;62.07
74659;BME280;63186;51.204;6.536;2022-10-19T10:13:47;102243.19;;;15.96;62.12
74659;BME280;63186;51.204;6.536;2022-10-19T10:16:15;102239.94;;;15.53;62.96
74659;BME280;63186;51.204;6.536;2022-10-19T10:18:51;102245.91;;;15.32;62.18
74659;BME280;63186;51.204;6.536;2022-10-19T10:21:23;102226.97;;;15.34;62.62
74659;BME280;63186;51.204;6.536;2022-10-19T10:24:09;102233.56;;;15.52;63.35
74659;BME280;63186;51.204;6.536;2022-10-19T10:26:49;102231.06;;;16.06;62.49
74659;BME280;63186;51.204;6.536;2022-10-19T10:31:47;102237.13;;;16.44;61.83
74659;BME280;63186;51.204;6.536;2022-10-19T10:34:54;102229.72;;;16.03;60.46
74659;BME280;63186;51.204;6.536;2022-10-19T10:37:28;102225.16;;;15.85;63.04
74659;BME280;63186;51.204;6.536;2022-10-19T10:39:56;102218.44;;;15.44;64.17
74659;BME280;63186;51.204;6.536;2022-10-19T10:42:29;102217.28;;;15.18;63.95
74659;BME280;63186;51.204;6.536;2022-10-19T10:44:57;102212.44;;;14.96;65.47
74659;BME280;63186;51.204;6.536;2022-10-19T10:47:24;102209.66;;;14.96;64.91
74659;BME280;63186;51.204;6.536;2022-10-19T10:49:53;102205.78;;;14.97;65.12
74659;BME280;63186;51.204;6.536;2022-10-19T10:52:20;102203.41;;;15.04;64.62
74659;BME280;63186;51.204;6.536;2022-10-19T10:55:15;102200.69;;;14.85;63.93
74659;BME280;63186;51.204;6.536;2022-10-19T10:57:44;102198.56;;;14.82;64.13
74659;BME280;63186;51.204;6.536;2022-10-19T11:00:13;102187.47;;;14.82;65.77
74659;BME280;63186;51.204;6.536;2022-10-19T11:02:51;102186.66;;;14.96;65.44
74659;BME280;63186;51.204;6.536;2022-10-19T11:08:24;102174.25;;;15.20;65.02
74659;BME280;63186;51.204;6.536;2022-10-19T11:10:59;102174.88;;;15.17;66.53
74659;BME280;63186;51.204;6.536;2022-10-19T11:13:43;102160.72;;;15.33;66.78
74659;BME280;63186;51.204;6.536;2022-10-19T11:16:23;102154.44;;;15.27;64.38
74659;BME280;63186;51.204;6.536;2022-10-19T11:18:52;102152.25;;;15.24;66.56
74659;BME280;63186;51.204;6.536;2022-10-19T11:21:24;102148.56;;;15.15;63.47
74659;BME280;63186;51.204;6.536;2022-10-19T11:24:04;102159.34;;;15.03;65.48
74659;BME280;63186;51.204;6.536;2022-10-19T11:35:49;102147.63;;;14.92;63.79
74659;BME280;63186;51.204;6.536;2022-10-19T11:41:31;102140.13;;;14.92;62.07
74659;BME280;63186;51.204;6.536;2022-10-19T11:44:20;102137.06;;;15.08;61.94
74659;BME280;63186;51.204;6.536;2022-10-19T11:49:37;102124.03;;;14.95;58.46
74659;BME280;63186;51.204;6.536;2022-10-19T11:52:23;102122.06;;;14.95;60.08
74659;BME280;63186;51.204;6.536;2022-10-19T11:57:33;102116.63;;;14.90;61.38
74659;BME280;63186;51.204;6.536;2022-10-19T12:00:08;102112.00;;;14.85;61.22
74659;BME280;63186;51.204;6.536;2022-10-19T12:05:22;102110.03;;;14.86;60.78
74659;BME280;63186;51.204;6.536;2022-10-19T12:08:29;102092.47;;;14.90;58.29
74659;BME280;63186;51.204;6.536;2022-10-19T12:11:17;102083.84;;;14.92;60.19
74659;BME280;63186;51.204;6.536;2022-10-19T12:13:51;102085.63;;;15.02;60.66
74659;BME280;63186;51.204;6.536;2022-10-19T12:16:20;102072.97;;;15.09;60.64
74659;BME280;63186;51.204;6.536;2022-10-19T12:18:50;102078.19;;;15.11;61.23
74659;BME280;63186;51.204;6.536;2022-10-19T12:21:27;102071.72;;;15.15;60.51
74659;BME280;63186;51.204;6.536;2022-10-19T12:23:56;102069.66;;;15.21;61.24
74659;BME280;63186;51.204;6.536;2022-10-19T12:26:23;102058.25;;;15.23;61.46
74659;BME280;63186;51.204;6.536;2022-10-19T12:28:57;102054.19;;;15.06;59.78
74659;BME280;63186;51.204;6.536;2022-10-19T12:31:27;102051.09;;;15.08;61.03
74659;BME280;63186;51.204;6.536;2022-10-19T12:34:25;102049.75;;;15.05;57.75
74659;BME280;63186;51.204;6.536;2022-10-19T12:44:37;102036.00;;;15.14;57.76
74659;BME280;63186;51.204;6.536;2022-10-19T12:47:17;102031.88;;;15.11;55.31
74659;BME280;63186;51.204;6.536;2022-10-19T12:49:51;102036.00;;;15.14;57.87
74659;BME280;63186;51.204;6.536;2022-10-19T12:57:41;102013.91;;;15.09;57.05
74659;BME280;63186;51.204;6.536;2022-10-19T13:00:21;102016.47;;;15.05;56.85
74659;BME280;63186;51.204;6.536;2022-10-19T13:02:56;102008.78;;;15.02;54.11
74659;BME280;63186;51.204;6.536;2022-10-19T13:05:23;102004.06;;;15.03;57.16
74659;BME280;63186;51.204;6.536;2022-10-19T13:07:49;101991.81;;;15.04;58.48
74659;BME280;63186;51.204;6.536;2022-10-19T13:10:21;101979.09;;;15.03;55.84
74659;BME280;63186;51.204;6.536;2022-10-19T13:12:47;101978.28;;;15.02;57.59
74659;BME280;63186;51.204;6.536;2022-10-19T13:18:10;101970.78;;;15.03;55.42
74659;BME280;63186;51.204;6.536;2022-10-19T13:25:30;101956.53;;;14.96;58.91
74659;BME280;63186;51.204;6.536;2022-10-19T13:41:08;101954.56;;;14.96;55.38
74659;BME280;63186;51.204;6.536;2022-10-19T13:48:40;101943.50;;;14.82;56.84
74659;BME280;63186;51.204;6.536;2022-10-19T14:09:04;101926.09;;;14.54;57.56
74659;BME280;63186;51.204;6.536;2022-10-19T14:11:36;101919.63;;;14.59;58.81
74659;BME280;63186;51.204;6.536;2022-10-19T14:14:18;101920.75;;;14.58;58.46
74659;BME280;63186;51.204;6.536;2022-10-19T14:16:55;101915.63;;;14.51;58.97
74659;BME280;63186;51.204;6.536;2022-10-19T14:21:53;101916.13;;;14.53;60.17
74659;BME280;63186;51.204;6.536;2022-10-19T14:24:33;101911.53;;;14.49;60.07
74659;BME280;63186;51.204;6.536;2022-10-19T14:27:03;101919.03;;;14.48;60.57
74659;BME280;63186;51.204;6.536;2022-10-19T14:29:34;101912.94;;;14.46;60.87
74659;BME280;63186;51.204;6.536;2022-10-19T14:32:08;101912.72;;;14.43;61.08
74659;BME280;63186;51.204;6.536;2022-10-19T14:34:39;101889.84;;;14.37;61.45
74659;BME280;63186;51.204;6.536;2022-10-19T14:37:13;101900.00;;;14.42;60.76
74659;BME280;63186;51.204;6.536;2022-10-19T14:39:40;101904.09;;;14.44;61.33
74659;BME280;63186;51.204;6.536;2022-10-19T14:42:09;101911.00;;;14.47;61.31
74659;BME280;63186;51.204;6.536;2022-10-19T14:44:42;101896.22;;;14.51;60.38
74659;BME280;63186;51.204;6.536;2022-10-19T14:47:20;101895.19;;;14.61;61.75
74659;BME280;63186;51.204;6.536;2022-10-19T14:49:46;101900.22;;;14.59;62.04
74659;BME280;63186;51.204;6.536;2022-10-19T14:52:16;101898.78;;;14.61;61.87
74659;BME280;63186;51.204;6.536;2022-10-19T14:54:46;101889.22;;;14.68;60.75
74659;BME280;63186;51.204;6.536;2022-10-19T14:57:19;101877.78;;;14.83;59.53
74659;BME280;63186;51.204;6.536;2022-10-19T14:59:52;101878.19;;;14.90;60.69